sensor_id;sensor_type;location;lat;lon;timestamp;temperature;humidity
23311;DHT22;11828;51.508;18.118;2023-11-21T00:01:59;25.80;37.50
23311;DHT22;11828;51.508;18.118;2023-11-21T00:04:25;25.80;37.60
23311;DHT22;11828;51.508;18.118;2023-11-21T00:06:54;25.80;37.60
23311;DHT22;11828;51.508;18.118;2023-11-21T00:09:20;25.80;37.50
23311;DHT22;11828;51.508;18.118;2023-11-21T00:11:47;25.80;37.50
23311;DHT22;11828;51.508;18.118;2023-11-21T00:14:13;25.70;37.50
23311;DHT22;11828;51.508;18.118;2023-11-21T00:16:41;25.70;37.60
23311;DHT22;11828;51.508;18.118;2023-11-21T00:19:07;25.70;37.70
23311;DHT22;11828;51.508;18.118;2023-11-21T00:21:33;25.70;37.70
23311;DHT22;11828;51.508;18.118;2023-11-21T00:23:59;25.70;37.70
23311;DHT22;11828;51.508;18.118;2023-11-21T00:26:25;25.70;37.70
23311;DHT22;11828;51.508;18.118;2023-11-21T00:28:52;25.70;37.70
23311;DHT22;11828;51.508;18.118;2023-11-21T00:31:18;25.70;37.60
23311;DHT22;11828;51.508;18.118;2023-11-21T00:33:44;25.70;37.60
23311;DHT22;11828;51.508;18.118;2023-11-21T00:36:10;25.70;37.70
23311;DHT22;11828;51.508;18.118;2023-11-21T00:38:37;25.70;37.60
23311;DHT22;11828;51.508;18.118;2023-11-21T00:41:06;25.70;37.60
23311;DHT22;11828;51.508;18.118;2023-11-21T00:43:32;25.70;37.70
23311;DHT22;11828;51.508;18.118;2023-11-21T00:45:59;25.60;37.70
23311;DHT22;11828;51.508;18.118;2023-11-21T00:48:25;25.60;37.80
23311;DHT22;11828;51.508;18.118;2023-11-21T00:50:51;25.60;37.90
23311;DHT22;11828;51.508;18.118;2023-11-21T00:53:17;25.60;38.00
23311;DHT22;11828;51.508;18.118;2023-11-21T00:55:43;25.60;38.00
23311;DHT22;11828;51.508;18.118;2023-11-21T00:58:10;25.60;37.90
23311;DHT22;11828;51.508;18.118;2023-11-21T01:00:36;25.60;37.90
23311;DHT22;11828;51.508;18.118;2023-11-21T01:03:05;25.60;38.00
23311;DHT22;11828;51.508;18.118;2023-11-21T01:05:33;25.60;38.00
23311;DHT22;11828;51.508;18.118;2023-11-21T01:08:00;25.60;38.00
23311;DHT22;11828;51.508;18.118;2023-11-21T01:10:26;25.60;37.90
23311;DHT22;11828;51.508;18.118;2023-11-21T01:12:52;25.60;38.00
23311;DHT22;11828;51.508;18.118;2023-11-21T01:15:18;25.60;38.00
23311;DHT22;11828;51.508;18.118;2023-11-21T01:17:44;25.60;37.80
23311;DHT22;11828;51.508;18.118;2023-11-21T01:20:10;25.50;37.90
23311;DHT22;11828;51.508;18.118;2023-11-21T01:22:39;25.50;37.90
23311;DHT22;11828;51.508;18.118;2023-11-21T01:25:05;25.50;38.00
23311;DHT22;11828;51.508;18.118;2023-11-21T01:27:34;25.40;37.90
23311;DHT22;11828;51.508;18.118;2023-11-21T01:30:01;25.50;38.00
23311;DHT22;11828;51.508;18.118;2023-11-21T01:32:28;25.50;37.90
23311;DHT22;11828;51.508;18.118;2023-11-21T01:34:54;25.50;38.00
23311;DHT22;11828;51.508;18.118;2023-11-21T01:37:21;25.40;38.00
23311;DHT22;11828;51.508;18.118;2023-11-21T01:39:48;25.50;38.10
23311;DHT22;11828;51.508;18.118;2023-11-21T01:42:14;25.50;38.00
23311;DHT22;11828;51.508;18.118;2023-11-21T01:44:40;25.60;37.90
23311;DHT22;11828;51.508;18.118;2023-11-21T01:47:07;25.60;37.80
23311;DHT22;11828;51.508;18.118;2023-11-21T01:49:33;25.60;37.80
23311;DHT22;11828;51.508;18.118;2023-11-21T01:52:00;25.50;37.90
23311;DHT22;11828;51.508;18.118;2023-11-21T01:54:27;25.50;38.00
23311;DHT22;11828;51.508;18.118;2023-11-21T01:57:00;25.50;38.00
23311;DHT22;11828;51.508;18.118;2023-11-21T01:59:38;25.50;38.00
23311;DHT22;11828;51.508;18.118;2023-11-21T02:02:08;25.40;38.20
23311;DHT22;11828;51.508;18.118;2023-11-21T02:04:35;25.40;38.20
23311;DHT22;11828;51.508;18.118;2023-11-21T02:07:02;25.50;38.20
23311;DHT22;11828;51.508;18.118;2023-11-21T02:09:31;25.70;38.00
23311;DHT22;11828;51.508;18.118;2023-11-21T02:12:00;25.80;37.80
23311;DHT22;11828;51.508;18.118;2023-11-21T02:14:27;25.90;37.60
23311;DHT22;11828;51.508;18.118;2023-11-21T02:16:54;26.00;37.60
23311;DHT22;11828;51.508;18.118;2023-11-21T02:19:23;26.00;37.50
23311;DHT22;11828;51.508;18.118;2023-11-21T02:21:52;26.10;37.40
23311;DHT22;11828;51.508;18.118;2023-11-21T02:24:20;26.10;37.20
23311;DHT22;11828;51.508;18.118;2023-11-21T02:26:50;26.10;37.00
23311;DHT22;11828;51.508;18.118;2023-11-21T02:29:19;26.10;37.10
23311;DHT22;11828;51.508;18.118;2023-11-21T02:31:50;26.10;37.20
23311;DHT22;11828;51.508;18.118;2023-11-21T02:34:17;26.10;37.40
23311;DHT22;11828;51.508;18.118;2023-11-21T02:36:44;26.10;37.40
23311;DHT22;11828;51.508;18.118;2023-11-21T02:39:10;26.10;37.40
23311;DHT22;11828;51.508;18.118;2023-11-21T02:41:40;26.10;37.40
23311;DHT22;11828;51.508;18.118;2023-11-21T02:44:06;26.10;37.30
23311;DHT22;11828;51.508;18.118;2023-11-21T02:46:33;26.10;37.20
23311;DHT22;11828;51.508;18.118;2023-11-21T02:49:01;26.10;37.30
23311;DHT22;11828;51.508;18.118;2023-11-21T02:51:30;26.10;37.20
23311;DHT22;11828;51.508;18.118;2023-11-21T02:53:56;26.10;37.20
23311;DHT22;11828;51.508;18.118;2023-11-21T02:56:26;26.10;37.30
23311;DHT22;11828;51.508;18.118;2023-11-21T02:58:55;26.10;37.20
23311;DHT22;11828;51.508;18.118;2023-11-21T03:01:21;26.10;37.30
23311;DHT22;11828;51.508;18.118;2023-11-21T03:03:47;26.10;37.30
23311;DHT22;11828;51.508;18.118;2023-11-21T03:06:18;26.10;37.40
23311;DHT22;11828;51.508;18.118;2023-11-21T03:08:47;26.10;37.30
23311;DHT22;11828;51.508;18.118;2023-11-21T03:11:14;26.10;37.30
23311;DHT22;11828;51.508;18.118;2023-11-21T03:13:41;26.20;37.20
23311;DHT22;11828;51.508;18.118;2023-11-21T03:16:10;26.20;37.20
23311;DHT22;11828;51.508;18.118;2023-11-21T03:18:40;26.10;37.20
23311;DHT22;11828;51.508;18.118;2023-11-21T03:21:07;26.10;37.30
23311;DHT22;11828;51.508;18.118;2023-11-21T03:23:35;26.10;37.20
23311;DHT22;11828;51.508;18.118;2023-11-21T03:26:02;26.10;37.30
23311;DHT22;11828;51.508;18.118;2023-11-21T03:28:28;26.10;37.30
23311;DHT22;11828;51.508;18.118;2023-11-21T03:30:56;26.20;37.30
23311;DHT22;11828;51.508;18.118;2023-11-21T03:33:22;26.20;37.30
23311;DHT22;11828;51.508;18.118;2023-11-21T03:35:48;26.20;37.30
23311;DHT22;11828;51.508;18.118;2023-11-21T03:38:15;26.20;37.20
23311;DHT22;11828;51.508;18.118;2023-11-21T03:40:42;26.20;37.10
23311;DHT22;11828;51.508;18.118;2023-11-21T03:43:08;26.20;37.10
23311;DHT22;11828;51.508;18.118;2023-11-21T03:45:34;26.20;37.10
23311;DHT22;11828;51.508;18.118;2023-11-21T03:48:00;26.30;37.10
23311;DHT22;11828;51.508;18.118;2023-11-21T03:50:30;26.30;37.00
23311;DHT22;11828;51.508;18.118;2023-11-21T03:52:56;26.20;37.00
23311;DHT22;11828;51.508;18.118;2023-11-21T03:55:23;26.20;37.00
23311;DHT22;11828;51.508;18.118;2023-11-21T03:57:52;26.20;37.00
23311;DHT22;11828;51.508;18.118;2023-11-21T04:00:18;26.10;37.00
23311;DHT22;11828;51.508;18.118;2023-11-21T04:02:45;26.10;37.10
23311;DHT22;11828;51.508;18.118;2023-11-21T04:05:12;26.00;37.00
23311;DHT22;11828;51.508;18.118;2023-11-21T04:07:38;26.00;36.90
23311;DHT22;11828;51.508;18.118;2023-11-21T04:10:06;25.90;37.00
23311;DHT22;11828;51.508;18.118;2023-11-21T04:12:35;25.80;37.10
23311;DHT22;11828;51.508;18.118;2023-11-21T04:15:03;25.80;38.00
23311;DHT22;11828;51.508;18.118;2023-11-21T04:17:29;25.70;37.30
23311;DHT22;11828;51.508;18.118;2023-11-21T04:19:55;25.60;37.20
23311;DHT22;11828;51.508;18.118;2023-11-21T04:22:21;25.50;37.20
23311;DHT22;11828;51.508;18.118;2023-11-21T04:24:47;25.40;38.10
23311;DHT22;11828;51.508;18.118;2023-11-21T04:27:13;25.40;37.40
23311;DHT22;11828;51.508;18.118;2023-11-21T04:29:40;25.30;37.30
23311;DHT22;11828;51.508;18.118;2023-11-21T04:32:07;25.30;37.30
23311;DHT22;11828;51.508;18.118;2023-11-21T04:34:33;25.20;37.40
23311;DHT22;11828;51.508;18.118;2023-11-21T04:37:00;25.00;37.20
23311;DHT22;11828;51.508;18.118;2023-11-21T04:39:26;25.00;37.40
23311;DHT22;11828;51.508;18.118;2023-11-21T04:41:52;25.00;37.60
23311;DHT22;11828;51.508;18.118;2023-11-21T04:44:19;24.90;37.40
23311;DHT22;11828;51.508;18.118;2023-11-21T04:46:45;24.90;37.50
23311;DHT22;11828;51.508;18.118;2023-11-21T04:49:11;24.80;37.60
23311;DHT22;11828;51.508;18.118;2023-11-21T04:51:37;24.80;37.20
23311;DHT22;11828;51.508;18.118;2023-11-21T04:54:04;24.80;37.40
23311;DHT22;11828;51.508;18.118;2023-11-21T04:56:31;24.70;37.30
23311;DHT22;11828;51.508;18.118;2023-11-21T04:58:57;24.70;37.50
23311;DHT22;11828;51.508;18.118;2023-11-21T05:01:23;24.60;37.50
23311;DHT22;11828;51.508;18.118;2023-11-21T05:03:49;24.60;37.60
23311;DHT22;11828;51.508;18.118;2023-11-21T05:06:15;24.60;37.40
23311;DHT22;11828;51.508;18.118;2023-11-21T05:08:42;24.50;37.30
23311;DHT22;11828;51.508;18.118;2023-11-21T05:11:08;24.40;37.40
23311;DHT22;11828;51.508;18.118;2023-11-21T05:13:36;24.10;37.50
23311;DHT22;11828;51.508;18.118;2023-11-21T05:16:03;24.00;37.70
23311;DHT22;11828;51.508;18.118;2023-11-21T05:18:33;23.90;37.90
23311;DHT22;11828;51.508;18.118;2023-11-21T05:21:00;23.70;38.00
23311;DHT22;11828;51.508;18.118;2023-11-21T05:23:26;23.60;38.10
23311;DHT22;11828;51.508;18.118;2023-11-21T05:25:52;23.50;38.10
23311;DHT22;11828;51.508;18.118;2023-11-21T05:28:19;23.50;38.10
23311;DHT22;11828;51.508;18.118;2023-11-21T05:30:45;23.40;38.10
23311;DHT22;11828;51.508;18.118;2023-11-21T05:33:11;23.20;38.10
23311;DHT22;11828;51.508;18.118;2023-11-21T05:35:37;23.20;38.20
23311;DHT22;11828;51.508;18.118;2023-11-21T05:38:03;23.10;38.30
23311;DHT22;11828;51.508;18.118;2023-11-21T05:40:30;23.20;38.20
23311;DHT22;11828;51.508;18.118;2023-11-21T05:42:57;23.10;38.20
23311;DHT22;11828;51.508;18.118;2023-11-21T05:45:22;23.10;38.10
23311;DHT22;11828;51.508;18.118;2023-11-21T05:47:49;23.00;37.90
23311;DHT22;11828;51.508;18.118;2023-11-21T05:50:16;22.90;38.30
23311;DHT22;11828;51.508;18.118;2023-11-21T05:52:46;22.90;38.40
23311;DHT22;11828;51.508;18.118;2023-11-21T05:55:13;22.80;39.10
23311;DHT22;11828;51.508;18.118;2023-11-21T05:57:41;22.70;38.40
23311;DHT22;11828;51.508;18.118;2023-11-21T06:00:12;22.80;38.30
23311;DHT22;11828;51.508;18.118;2023-11-21T06:02:58;22.70;38.20
23311;DHT22;11828;51.508;18.118;2023-11-21T06:05:25;22.70;38.10
23311;DHT22;11828;51.508;18.118;2023-11-21T06:07:53;22.80;38.00
23311;DHT22;11828;51.508;18.118;2023-11-21T06:10:20;22.80;37.90
23311;DHT22;11828;51.508;18.118;2023-11-21T06:12:47;22.80;37.80
23311;DHT22;11828;51.508;18.118;2023-11-21T06:15:14;22.80;37.60
23311;DHT22;11828;51.508;18.118;2023-11-21T06:17:41;22.80;37.40
23311;DHT22;11828;51.508;18.118;2023-11-21T06:20:09;22.70;37.30
23311;DHT22;11828;51.508;18.118;2023-11-21T06:22:38;22.70;37.30
23311;DHT22;11828;51.508;18.118;2023-11-21T06:25:05;22.70;37.30
23311;DHT22;11828;51.508;18.118;2023-11-21T06:27:35;22.60;37.20
23311;DHT22;11828;51.508;18.118;2023-11-21T06:30:03;22.50;37.30
23311;DHT22;11828;51.508;18.118;2023-11-21T06:32:30;22.40;37.20
23311;DHT22;11828;51.508;18.118;2023-11-21T06:34:56;22.30;37.20
23311;DHT22;11828;51.508;18.118;2023-11-21T06:37:26;22.30;37.30
23311;DHT22;11828;51.508;18.118;2023-11-21T06:39:53;22.10;37.20
23311;DHT22;11828;51.508;18.118;2023-11-21T06:42:20;22.20;37.30
23311;DHT22;11828;51.508;18.118;2023-11-21T06:44:46;22.10;37.30
23311;DHT22;11828;51.508;18.118;2023-11-21T06:47:14;22.00;37.30
23311;DHT22;11828;51.508;18.118;2023-11-21T06:49:42;22.00;37.30
23311;DHT22;11828;51.508;18.118;2023-11-21T06:52:09;21.90;37.40
23311;DHT22;11828;51.508;18.118;2023-11-21T06:54:36;21.80;37.40
23311;DHT22;11828;51.508;18.118;2023-11-21T06:57:02;21.80;37.40
23311;DHT22;11828;51.508;18.118;2023-11-21T06:59:29;21.70;37.20
23311;DHT22;11828;51.508;18.118;2023-11-21T07:01:55;21.60;37.20
23311;DHT22;11828;51.508;18.118;2023-11-21T07:04:21;21.60;37.00
23311;DHT22;11828;51.508;18.118;2023-11-21T07:06:47;21.40;37.90
23311;DHT22;11828;51.508;18.118;2023-11-21T07:09:13;21.30;37.20
23311;DHT22;11828;51.508;18.118;2023-11-21T07:11:41;21.20;37.50
23311;DHT22;11828;51.508;18.118;2023-11-21T07:14:07;21.10;37.80
23311;DHT22;11828;51.508;18.118;2023-11-21T07:16:35;21.00;37.60
23311;DHT22;11828;51.508;18.118;2023-11-21T07:19:06;20.90;37.60
23311;DHT22;11828;51.508;18.118;2023-11-21T07:21:33;20.90;38.10
23311;DHT22;11828;51.508;18.118;2023-11-21T07:24:00;20.90;38.10
23311;DHT22;11828;51.508;18.118;2023-11-21T07:26:27;20.80;37.90
23311;DHT22;11828;51.508;18.118;2023-11-21T07:28:54;20.70;38.00
23311;DHT22;11828;51.508;18.118;2023-11-21T07:31:20;20.70;37.90
23311;DHT22;11828;51.508;18.118;2023-11-21T07:33:47;20.60;37.90
23311;DHT22;11828;51.508;18.118;2023-11-21T07:36:14;20.50;38.20
23311;DHT22;11828;51.508;18.118;2023-11-21T07:38:41;20.50;38.10
23311;DHT22;11828;51.508;18.118;2023-11-21T07:41:09;20.50;38.00
23311;DHT22;11828;51.508;18.118;2023-11-21T07:43:36;20.40;37.90
23311;DHT22;11828;51.508;18.118;2023-11-21T07:46:03;20.30;38.10
23311;DHT22;11828;51.508;18.118;2023-11-21T07:48:30;20.40;38.10
23311;DHT22;11828;51.508;18.118;2023-11-21T07:50:58;20.20;37.90
23311;DHT22;11828;51.508;18.118;2023-11-21T07:53:27;20.30;37.90
23311;DHT22;11828;51.508;18.118;2023-11-21T07:56:03;20.20;37.90
23311;DHT22;11828;51.508;18.118;2023-11-21T07:58:29;20.20;38.40
23311;DHT22;11828;51.508;18.118;2023-11-21T08:00:56;20.20;38.20
23311;DHT22;11828;51.508;18.118;2023-11-21T08:03:22;20.10;38.00
23311;DHT22;11828;51.508;18.118;2023-11-21T08:05:49;20.20;38.20
23311;DHT22;11828;51.508;18.118;2023-11-21T08:08:15;20.20;38.00
23311;DHT22;11828;51.508;18.118;2023-11-21T08:10:45;20.30;38.00
23311;DHT22;11828;51.508;18.118;2023-11-21T08:13:14;20.20;37.70
23311;DHT22;11828;51.508;18.118;2023-11-21T08:15:42;20.10;37.70
23311;DHT22;11828;51.508;18.118;2023-11-21T08:18:12;20.10;37.90
23311;DHT22;11828;51.508;18.118;2023-11-21T08:20:40;20.00;37.80
23311;DHT22;11828;51.508;18.118;2023-11-21T08:23:06;20.00;37.50
23311;DHT22;11828;51.508;18.118;2023-11-21T08:25:33;20.00;37.80
23311;DHT22;11828;51.508;18.118;2023-11-21T08:28:00;19.90;37.80
23311;DHT22;11828;51.508;18.118;2023-11-21T08:30:27;20.00;37.60
23311;DHT22;11828;51.508;18.118;2023-11-21T08:32:55;19.80;37.60
23311;DHT22;11828;51.508;18.118;2023-11-21T08:35:24;19.90;37.20
23311;DHT22;11828;51.508;18.118;2023-11-21T08:37:51;19.80;37.30
23311;DHT22;11828;51.508;18.118;2023-11-21T08:40:19;19.70;37.50
23311;DHT22;11828;51.508;18.118;2023-11-21T08:42:47;19.70;37.60
23311;DHT22;11828;51.508;18.118;2023-11-21T08:45:14;19.80;37.60
23311;DHT22;11828;51.508;18.118;2023-11-21T08:47:40;19.90;37.40
23311;DHT22;11828;51.508;18.118;2023-11-21T08:50:10;20.20;37.00
23311;DHT22;11828;51.508;18.118;2023-11-21T08:52:41;20.40;36.80
23311;DHT22;11828;51.508;18.118;2023-11-21T08:55:08;20.40;36.50
23311;DHT22;11828;51.508;18.118;2023-11-21T08:57:38;20.40;36.30
23311;DHT22;11828;51.508;18.118;2023-11-21T09:00:06;20.20;36.10
23311;DHT22;11828;51.508;18.118;2023-11-21T09:02:38;20.10;36.60
23311;DHT22;11828;51.508;18.118;2023-11-21T09:05:05;20.10;36.80
23311;DHT22;11828;51.508;18.118;2023-11-21T09:07:32;20.10;37.00
23311;DHT22;11828;51.508;18.118;2023-11-21T09:09:58;20.10;36.80
23311;DHT22;11828;51.508;18.118;2023-11-21T09:12:24;20.20;36.60
23311;DHT22;11828;51.508;18.118;2023-11-21T09:14:51;20.30;36.40
23311;DHT22;11828;51.508;18.118;2023-11-21T09:17:17;20.30;37.00
23311;DHT22;11828;51.508;18.118;2023-11-21T09:19:43;20.30;36.30
23311;DHT22;11828;51.508;18.118;2023-11-21T09:22:11;20.50;36.30
23311;DHT22;11828;51.508;18.118;2023-11-21T09:24:37;20.50;36.10
23311;DHT22;11828;51.508;18.118;2023-11-21T09:27:03;20.60;35.20
23311;DHT22;11828;51.508;18.118;2023-11-21T09:29:31;20.50;35.40
23311;DHT22;11828;51.508;18.118;2023-11-21T09:32:00;20.50;35.40
23311;DHT22;11828;51.508;18.118;2023-11-21T09:34:27;20.40;35.60
23311;DHT22;11828;51.508;18.118;2023-11-21T09:36:53;20.50;35.60
23311;DHT22;11828;51.508;18.118;2023-11-21T09:39:19;20.50;35.40
23311;DHT22;11828;51.508;18.118;2023-11-21T09:41:49;20.50;35.50
23311;DHT22;11828;51.508;18.118;2023-11-21T09:44:25;20.50;35.40
23311;DHT22;11828;51.508;18.118;2023-11-21T09:46:59;20.70;35.20
23311;DHT22;11828;51.508;18.118;2023-11-21T09:49:26;20.70;35.80
23311;DHT22;11828;51.508;18.118;2023-11-21T09:51:55;20.90;35.20
23311;DHT22;11828;51.508;18.118;2023-11-21T09:54:24;20.90;35.00
23311;DHT22;11828;51.508;18.118;2023-11-21T09:56:51;20.90;34.80
23311;DHT22;11828;51.508;18.118;2023-11-21T09:59:17;21.00;34.90
23311;DHT22;11828;51.508;18.118;2023-11-21T10:01:44;21.00;34.70
23311;DHT22;11828;51.508;18.118;2023-11-21T10:04:13;21.10;34.70
23311;DHT22;11828;51.508;18.118;2023-11-21T10:06:40;21.10;34.30
23311;DHT22;11828;51.508;18.118;2023-11-21T10:09:10;21.00;34.60
23311;DHT22;11828;51.508;18.118;2023-11-21T10:11:43;20.90;34.30
23311;DHT22;11828;51.508;18.118;2023-11-21T10:14:13;20.80;34.70
23311;DHT22;11828;51.508;18.118;2023-11-21T10:16:41;20.80;34.60
23311;DHT22;11828;51.508;18.118;2023-11-21T10:19:11;20.80;34.60
23311;DHT22;11828;51.508;18.118;2023-11-21T10:21:41;20.70;34.80
23311;DHT22;11828;51.508;18.118;2023-11-21T10:24:07;20.50;35.00
23311;DHT22;11828;51.508;18.118;2023-11-21T10:26:34;20.50;35.10
23311;DHT22;11828;51.508;18.118;2023-11-21T10:29:02;20.50;35.20
23311;DHT22;11828;51.508;18.118;2023-11-21T10:31:33;20.30;35.50
23311;DHT22;11828;51.508;18.118;2023-11-21T10:34:15;20.20;35.70
23311;DHT22;11828;51.508;18.118;2023-11-21T10:36:42;20.20;35.60
23311;DHT22;11828;51.508;18.118;2023-11-21T10:39:09;20.30;35.60
23311;DHT22;11828;51.508;18.118;2023-11-21T10:41:38;20.20;35.40
23311;DHT22;11828;51.508;18.118;2023-11-21T10:44:04;20.20;36.10
23311;DHT22;11828;51.508;18.118;2023-11-21T10:46:32;20.10;35.70
23311;DHT22;11828;51.508;18.118;2023-11-21T10:48:59;20.00;35.70
23311;DHT22;11828;51.508;18.118;2023-11-21T10:51:26;19.80;36.00
23311;DHT22;11828;51.508;18.118;2023-11-21T10:53:52;19.60;36.20
23311;DHT22;11828;51.508;18.118;2023-11-21T10:56:19;19.60;36.50
23311;DHT22;11828;51.508;18.118;2023-11-21T10:58:48;19.60;36.40
23311;DHT22;11828;51.508;18.118;2023-11-21T11:01:18;19.60;36.40
23311;DHT22;11828;51.508;18.118;2023-11-21T11:03:44;19.50;36.60
23311;DHT22;11828;51.508;18.118;2023-11-21T11:06:12;19.40;36.50
23311;DHT22;11828;51.508;18.118;2023-11-21T11:08:40;19.60;36.20
23311;DHT22;11828;51.508;18.118;2023-11-21T11:11:07;19.40;36.30
23311;DHT22;11828;51.508;18.118;2023-11-21T11:13:33;19.40;36.40
23311;DHT22;11828;51.508;18.118;2023-11-21T11:16:01;19.40;36.20
23311;DHT22;11828;51.508;18.118;2023-11-21T11:18:30;19.50;36.50
23311;DHT22;11828;51.508;18.118;2023-11-21T11:21:15;19.60;36.40
23311;DHT22;11828;51.508;18.118;2023-11-21T11:26:57;19.50;36.30
23311;DHT22;11828;51.508;18.118;2023-11-21T11:29:41;19.60;36.90
23311;DHT22;11828;51.508;18.118;2023-11-21T11:32:47;19.70;36.00
23311;DHT22;11828;51.508;18.118;2023-11-21T11:39:02;19.80;35.80
23311;DHT22;11828;51.508;18.118;2023-11-21T11:41:31;19.70;35.70
23311;DHT22;11828;51.508;18.118;2023-11-21T11:44:01;19.70;35.80
23311;DHT22;11828;51.508;18.118;2023-11-21T11:46:43;19.60;35.60
23311;DHT22;11828;51.508;18.118;2023-11-21T11:49:24;19.50;35.60
23311;DHT22;11828;51.508;18.118;2023-11-21T11:55:15;19.40;35.90
23311;DHT22;11828;51.508;18.118;2023-11-21T11:57:53;19.50;36.10
23311;DHT22;11828;51.508;18.118;2023-11-21T12:02:57;19.50;36.10
23311;DHT22;11828;51.508;18.118;2023-11-21T12:05:26;19.40;35.90
23311;DHT22;11828;51.508;18.118;2023-11-21T12:08:00;19.30;36.00
23311;DHT22;11828;51.508;18.118;2023-11-21T12:10:31;19.30;36.20
23311;DHT22;11828;51.508;18.118;2023-11-21T12:13:03;19.30;36.40
23311;DHT22;11828;51.508;18.118;2023-11-21T12:15:34;19.20;36.40
23311;DHT22;11828;51.508;18.118;2023-11-21T12:18:00;19.20;36.40
23311;DHT22;11828;51.508;18.118;2023-11-21T12:20:27;19.20;36.40
23311;DHT22;11828;51.508;18.118;2023-11-21T12:22:55;19.20;36.40
23311;DHT22;11828;51.508;18.118;2023-11-21T12:25:27;19.20;36.50
23311;DHT22;11828;51.508;18.118;2023-11-21T12:27:56;19.20;36.40
23311;DHT22;11828;51.508;18.118;2023-11-21T12:30:24;19.30;36.40
23311;DHT22;11828;51.508;18.118;2023-11-21T12:32:55;19.30;36.30
23311;DHT22;11828;51.508;18.118;2023-11-21T12:35:26;19.40;36.10
23311;DHT22;11828;51.508;18.118;2023-11-21T12:37:57;19.30;36.00
23311;DHT22;11828;51.508;18.118;2023-11-21T12:40:23;19.30;35.80
23311;DHT22;11828;51.508;18.118;2023-11-21T12:42:52;19.20;36.00
23311;DHT22;11828;51.508;18.118;2023-11-21T12:45:24;19.10;36.00
23311;DHT22;11828;51.508;18.118;2023-11-21T12:48:02;19.10;36.40
23311;DHT22;11828;51.508;18.118;2023-11-21T12:50:34;19.00;36.50
23311;DHT22;11828;51.508;18.118;2023-11-21T12:53:10;19.00;36.30
23311;DHT22;11828;51.508;18.118;2023-11-21T12:55:44;18.90;36.50
23311;DHT22;11828;51.508;18.118;2023-11-21T12:58:15;18.80;36.40
23311;DHT22;11828;51.508;18.118;2023-11-21T13:00:46;18.90;36.20
23311;DHT22;11828;51.508;18.118;2023-11-21T13:03:15;18.90;36.30
23311;DHT22;11828;51.508;18.118;2023-11-21T13:05:49;18.90;36.30
23311;DHT22;11828;51.508;18.118;2023-11-21T13:08:17;18.80;36.20
23311;DHT22;11828;51.508;18.118;2023-11-21T13:10:56;18.70;36.40
23311;DHT22;11828;51.508;18.118;2023-11-21T13:13:23;18.50;36.40
23311;DHT22;11828;51.508;18.118;2023-11-21T13:15:55;18.50;36.30
23311;DHT22;11828;51.508;18.118;2023-11-21T13:18:31;18.50;37.20
23311;DHT22;11828;51.508;18.118;2023-11-21T13:21:09;18.40;36.60
23311;DHT22;11828;51.508;18.118;2023-11-21T13:23:38;18.40;36.80
23311;DHT22;11828;51.508;18.118;2023-11-21T13:26:05;18.20;36.70
23311;DHT22;11828;51.508;18.118;2023-11-21T13:28:32;18.20;36.80
23311;DHT22;11828;51.508;18.118;2023-11-21T13:31:00;18.10;37.20
23311;DHT22;11828;51.508;18.118;2023-11-21T13:33:35;18.20;37.10
23311;DHT22;11828;51.508;18.118;2023-11-21T13:36:06;18.20;36.90
23311;DHT22;11828;51.508;18.118;2023-11-21T13:38:36;18.10;37.00
23311;DHT22;11828;51.508;18.118;2023-11-21T13:41:07;18.10;37.20
23311;DHT22;11828;51.508;18.118;2023-11-21T13:43:35;18.20;37.20
23311;DHT22;11828;51.508;18.118;2023-11-21T13:46:02;18.30;37.00
23311;DHT22;11828;51.508;18.118;2023-11-21T13:48:38;18.20;36.80
23311;DHT22;11828;51.508;18.118;2023-11-21T13:51:09;18.10;37.00
23311;DHT22;11828;51.508;18.118;2023-11-21T13:53:47;18.30;37.10
23311;DHT22;11828;51.508;18.118;2023-11-21T13:56:16;18.20;37.10
23311;DHT22;11828;51.508;18.118;2023-11-21T13:58:45;18.20;37.10
23311;DHT22;11828;51.508;18.118;2023-11-21T14:01:18;18.30;36.90
23311;DHT22;11828;51.508;18.118;2023-11-21T14:04:00;18.40;36.80
23311;DHT22;11828;51.508;18.118;2023-11-21T14:06:53;18.30;36.40
23311;DHT22;11828;51.508;18.118;2023-11-21T14:09:22;18.30;36.50
23311;DHT22;11828;51.508;18.118;2023-11-21T14:11:53;18.20;36.50
23311;DHT22;11828;51.508;18.118;2023-11-21T14:14:22;18.20;37.30
23311;DHT22;11828;51.508;18.118;2023-11-21T14:16:51;18.10;36.80
23311;DHT22;11828;51.508;18.118;2023-11-21T14:19:18;18.20;36.70
23311;DHT22;11828;51.508;18.118;2023-11-21T14:21:45;18.30;36.70
23311;DHT22;11828;51.508;18.118;2023-11-21T14:24:14;18.30;36.70
23311;DHT22;11828;51.508;18.118;2023-11-21T14:26:48;18.10;36.70
23311;DHT22;11828;51.508;18.118;2023-11-21T14:29:15;18.00;36.80
23311;DHT22;11828;51.508;18.118;2023-11-21T14:31:46;18.10;37.10
23311;DHT22;11828;51.508;18.118;2023-11-21T14:34:13;18.10;36.80
23311;DHT22;11828;51.508;18.118;2023-11-21T14:36:41;18.10;36.70
23311;DHT22;11828;51.508;18.118;2023-11-21T14:39:08;18.10;36.80
23311;DHT22;11828;51.508;18.118;2023-11-21T14:41:52;18.10;36.80
23311;DHT22;11828;51.508;18.118;2023-11-21T14:44:21;18.00;36.60
23311;DHT22;11828;51.508;18.118;2023-11-21T14:46:52;18.10;36.70
23311;DHT22;11828;51.508;18.118;2023-11-21T14:49:20;18.00;36.60
23311;DHT22;11828;51.508;18.118;2023-11-21T14:51:51;18.00;36.70
23311;DHT22;11828;51.508;18.118;2023-11-21T14:54:21;18.00;36.60
23311;DHT22;11828;51.508;18.118;2023-11-21T14:57:14;18.00;36.70
23311;DHT22;11828;51.508;18.118;2023-11-21T14:59:48;17.90;36.60
23311;DHT22;11828;51.508;18.118;2023-11-21T15:02:18;17.80;36.90
23311;DHT22;11828;51.508;18.118;2023-11-21T15:05:07;17.80;37.00
23311;DHT22;11828;51.508;18.118;2023-11-21T15:07:39;17.70;36.90
23311;DHT22;11828;51.508;18.118;2023-11-21T15:10:05;19.00;37.50
23311;DHT22;11828;51.508;18.118;2023-11-21T15:12:37;17.70;37.00
23311;DHT22;11828;51.508;18.118;2023-11-21T15:15:06;17.90;37.00
23311;DHT22;11828;51.508;18.118;2023-11-21T15:17:36;17.80;36.90
23311;DHT22;11828;51.508;18.118;2023-11-21T15:20:03;17.90;37.10
23311;DHT22;11828;51.508;18.118;2023-11-21T15:22:32;17.70;36.80
23311;DHT22;11828;51.508;18.118;2023-11-21T15:24:58;17.70;36.60
23311;DHT22;11828;51.508;18.118;2023-11-21T15:27:26;17.70;37.00
23311;DHT22;11828;51.508;18.118;2023-11-21T15:29:53;17.60;37.10
23311;DHT22;11828;51.508;18.118;2023-11-21T15:32:19;17.60;37.20
23311;DHT22;11828;51.508;18.118;2023-11-21T15:34:47;17.70;37.10
23311;DHT22;11828;51.508;18.118;2023-11-21T15:37:13;17.50;37.10